Flight Track Log - Related Links

Times and Time Zones

All times are in EDT time to prevent confusion due to time zone crossing. See the AAL2345 flight status page for this flight to view local times or setup timezone preferences in your user account.

Time Position Orientation Groundspeed Altitude Reporting Facility
EDT Latitude Longitude Course Direction KTS MPH feet Rate Location/Type
Wed 08:52:39 PM 41.9500 -88.0167 243° Southwest 224 258 3,800  Level Chicago TRACON
Wed 08:54:00 PM 41.8792 -88.3271 242° Southwest  Level FlightAware Approximate
Wed 08:54:13 PM 41.8797 -88.0942 219° Southwest 271 312 7,800  Level Chicago Center
Wed 08:55:00 PM 41.8371 -88.4648 255° West  Level FlightAware Approximate
Wed 08:55:14 PM 41.8306 -88.1761 231° Southwest 254 292 11,000  Level Chicago Center
Wed 08:56:00 PM 41.8057 -88.6085 254° West  Level FlightAware Approximate
Wed 08:56:14 PM 41.8019 -88.2711 248° West 274 315 12,600  Level Chicago Center
Wed 08:57:00 PM 41.7196 -88.7039 236° Southwest  Level Estimated
Wed 08:57:15 PM 41.7672 -88.3756 246° West 305 351 14,600  Level Chicago Center
Wed 08:58:00 PM 41.6334 -88.7990 243° Southwest  Level Estimated
Wed 08:58:16 PM 41.7558 -88.4861 262° West 304 350 15,100  Level Chicago Center
Wed 08:59:19 PM 41.7469 -88.6019 264° West 314 361 15,100  Level Chicago Center
Wed 09:00:20 PM 41.7394 -88.7158 265° West 312 359 15,100 98 Level Chicago Center
Wed 09:01:21 PM 41.7342 -88.8294 266° West 310 357 15,300 1,033 Climbing Chicago Center
Wed 09:02:22 PM 41.7253 -88.9725 265° West 325 374 17,200 2,115 Climbing Chicago Center
Wed 09:03:23 PM 41.7158 -89.1017 264° West 351 404 19,600 2,016 Climbing Chicago Center
Wed 09:04:24 PM 41.7081 -89.2342 266° West 359 413 21,300 1,686 Climbing Chicago Center
Wed 09:05:24 PM 41.6967 -89.3694 264° West 369 425 23,000 1,686 Climbing Chicago Center
Wed 09:06:25 PM 41.6858 -89.5097 264° West 379 436 24,700 1,475 Climbing Chicago Center
Wed 09:07:26 PM 41.6603 -89.6458 256° West 405 466 26,000 1,033 Climbing Chicago Center
Wed 09:08:27 PM 41.6153 -89.7842 247° West 412 474 26,800 836 Climbing Chicago Center
Wed 09:09:28 PM 41.5656 -89.9275 245° Southwest 426 490 27,700 942 Climbing Chicago Center
Wed 09:10:28 PM 41.5139 -90.0789 246° West 445 512 28,700 1,140 Climbing Chicago Center
Wed 09:11:29 PM 41.4625 -90.2308 246° West 452 520 30,000 1,230 Climbing Chicago Center
Wed 09:12:30 PM 41.3925 -90.3717 237° Southwest 462 532 31,200 1,131 Climbing Chicago Center
Wed 09:13:31 PM 41.2864 -90.5161 226° Southwest 464 534 32,300 1,180 Climbing Chicago Center
Wed 09:14:32 PM 41.1997 -90.6367 226° Southwest 460 529 33,600 843 Climbing Chicago Center
Wed 09:15:32 PM 41.1167 -90.7550 227° Southwest 447 514 34,000 198 Climbing Chicago Center
Wed 09:16:33 PM 41.0314 -90.8736 226° Southwest 445 512 34,000  Level Chicago Center
Wed 09:17:34 PM 40.9453 -90.9919 226° Southwest 447 514 34,000  Level Chicago Center
Wed 09:18:35 PM 40.8594 -91.1092 226° Southwest 446 513 34,000  Level Chicago Center
Wed 09:19:36 PM 40.7756 -91.2269 227° Southwest 444 511 34,000  Level Chicago Center
Wed 09:20:37 PM 40.6936 -91.3372 226° Southwest 435 501 34,000  Level Chicago Center
Wed 09:21:37 PM 40.6114 -91.4517 227° Southwest 433 498 34,000  Level Chicago Center
Wed 09:22:38 PM 40.5281 -91.5647 226° Southwest 435 501 34,000  Level Chicago Center
Wed 09:23:39 PM 40.4289 -91.6989 226° Southwest 429 494 34,000  Level Chicago Center
Wed 09:24:02 PM 40.4122 -91.7206 225° Southwest 429 494 34,000  Level Kansas City Center
Wed 09:25:03 PM 40.3117 -91.8558 226° Southwest 432 497 34,000  Level Kansas City Center
Wed 09:26:07 PM 40.2278 -91.9650 225° Southwest 429 494 34,000  Level Kansas City Center
Wed 09:27:08 PM 40.1286 -92.0567 215° Southwest 436 502 34,000  Level Kansas City Center
Wed 09:28:11 PM 40.0347 -92.1542 219° Southwest 434 499 34,000  Level Kansas City Center
Wed 09:29:12 PM 39.9383 -92.2506 217° Southwest 434 499 34,000  Level Kansas City Center
Wed 09:30:14 PM 39.8439 -92.3464 218° Southwest 433 498 34,000  Level Kansas City Center
Wed 09:31:14 PM 39.7494 -92.4411 218° Southwest 432 497 34,000  Level Kansas City Center
Wed 09:32:18 PM 39.6350 -92.5544 217° Southwest 432 497 34,000  Level Kansas City Center
Wed 09:33:18 PM 39.5414 -92.6486 218° Southwest 429 494 34,000  Level Kansas City Center
Wed 09:34:22 PM 39.4478 -92.7431 218° Southwest 430 495 34,000  Level Kansas City Center
Wed 09:35:23 PM 39.3522 -92.8372 217° Southwest 433 498 34,000  Level Kansas City Center
Wed 09:36:23 PM 39.2572 -92.9303 217° Southwest 433 498 34,000  Level Kansas City Center
Wed 09:37:27 PM 39.1617 -93.0264 218° Southwest 435 501 34,000  Level Kansas City Center
Wed 09:38:27 PM 39.0472 -93.1378 217° Southwest 435 501 34,000  Level Kansas City Center
Wed 09:39:28 PM 38.9439 -93.2375 217° Southwest 437 503 34,000  Level Kansas City Center
Wed 09:40:32 PM 38.8469 -93.3317 217° Southwest 438 504 34,000  Level Kansas City Center
Wed 09:41:32 PM 38.7492 -93.4256 217° Southwest 440 506 34,000  Level Kansas City Center
Wed 09:42:34 PM 38.6544 -93.5181 217° Southwest 434 499 34,000  Level Kansas City Center
Wed 09:43:37 PM 38.5578 -93.6108 217° Southwest 433 498 34,000  Level Kansas City Center
Wed 09:44:39 PM 38.4586 -93.7050 217° Southwest 439 505 34,000  Level Kansas City Center
Wed 09:45:39 PM 38.3594 -93.8000 217° Southwest 443 510 34,000  Level Kansas City Center
Wed 09:46:43 PM 38.2414 -93.9131 217° Southwest 443 510 34,000  Level Kansas City Center
Wed 09:47:44 PM 38.1422 -94.0069 217° Southwest 444 511 34,000  Level Kansas City Center
Wed 09:48:45 PM 38.0372 -94.1058 217° Southwest 448 516 34,000  Level Kansas City Center
Wed 09:49:48 PM 37.9400 -94.1969 216° Southwest 451 519 34,000  Level Kansas City Center
Wed 09:50:50 PM 37.8389 -94.2908 216° Southwest 453 521 34,000  Level Kansas City Center
Wed 09:51:51 PM 37.7392 -94.3850 217° Southwest 451 519 34,000  Level Kansas City Center
Wed 09:52:51 PM 37.6211 -94.4975 217° Southwest 453 521 34,000  Level Kansas City Center
Wed 09:53:54 PM 37.5208 -94.5889 216° Southwest 448 516 34,000  Level Kansas City Center
Wed 09:54:57 PM 37.4189 -94.6806 216° Southwest 447 514 34,000  Level Kansas City Center
Wed 09:55:59 PM 37.3158 -94.7764 216° Southwest 456 525 34,000  Level Kansas City Center
Wed 09:57:00 PM 37.2158 -94.8717 217° Southwest 455 524 34,000  Level Kansas City Center
Wed 09:58:00 PM 37.1139 -94.9622 215° Southwest 449 517 34,000  Level Kansas City Center
Wed 09:59:04 PM 37.0122 -95.0547 216° Southwest 451 519 34,000  Level Kansas City Center
Wed 10:00:04 PM 36.8700 -95.1169 199° South 461 531 34,000  Level Kansas City Center
Wed 10:01:06 PM 36.7422 -95.1467 191° South 467 537 34,000  Level Kansas City Center
Wed 10:02:07 PM 36.6164 -95.1847 194° South 464 534 34,000  Level Kansas City Center
Wed 10:03:10 PM 36.4819 -95.2211 192° South 465 535 34,000  Level Kansas City Center
Wed 10:04:13 PM 36.3536 -95.2561 192° South 470 541 34,000  Level Kansas City Center
Wed 10:05:13 PM 36.2244 -95.2903 192° South 472 543 34,000  Level Kansas City Center
Wed 10:06:17 PM 36.1008 -95.3267 193° South 467 537 34,000  Level Kansas City Center
Wed 10:07:17 PM 35.9744 -95.3619 193° South 461 531 34,000  Level Kansas City Center
Wed 10:08:18 PM 35.8511 -95.3967 193° South 454 522 34,000  Level Kansas City Center
Wed 10:09:21 PM 35.7267 -95.4300 192° South 455 524 34,000 47 Level Kansas City Center
Wed 10:10:25 PM 35.5725 -95.4589 189° South 469 540 34,100  Climbing Fort Worth Center
Wed 10:11:25 PM 35.4467 -95.4236 167° South 453 521 34,000 -50 Descending Fort Worth Center
Wed 10:12:25 PM 35.3192 -95.4011 172° South 465 535 34,000  Level Fort Worth Center
Wed 10:13:25 PM 35.1958 -95.3786 172° South 465 535 34,000  Level Fort Worth Center
Wed 10:14:25 PM 35.0722 -95.3536 171° South 465 535 34,000 -100 Level Fort Worth Center
Wed 10:15:25 PM 34.9469 -95.3314 172° South 459 528 33,800 -700 Descending Fort Worth Center
Wed 10:16:25 PM 34.8214 -95.3092 172° South 459 528 32,600 -1,150 Descending Fort Worth Center
Wed 10:17:25 PM 34.6958 -95.2869 172° South 459 528 31,500 -1,000 Descending Fort Worth Center
Wed 10:18:25 PM 34.5661 -95.2675 173° South 465 535 30,600 -1,200 Descending Fort Worth Center
Wed 10:19:25 PM 34.4475 -95.2831 186° South 445 512 29,100 -1,400 Descending Fort Worth Center
Wed 10:20:25 PM 34.3553 -95.3858 223° Southwest 419 482 27,800 -1,400 Descending Fort Worth Center
Wed 10:21:25 PM 34.2608 -95.4836 221° Southwest 437 503 26,300 -1,250 Descending Fort Worth Center
Wed 10:22:25 PM 34.1642 -95.5811 220° Southwest 450 518 25,300 -1,100 Descending Fort Worth Center
Wed 10:23:25 PM 34.0819 -95.6681 221° Southwest 452 520 24,100 -1,200 Descending Fort Worth Center
Wed 10:24:25 PM 33.9894 -95.7653 221° Southwest 447 514 22,900 -1,150 Descending Fort Worth Center
Wed 10:25:25 PM 33.9008 -95.8619 222° Southwest 442 509 21,800 -1,500 Descending Fort Worth Center
Wed 10:26:25 PM 33.7997 -95.9636 220° Southwest 437 503 19,900 -2,150 Descending Fort Worth Center
Wed 10:27:25 PM 33.7131 -96.0550 221° Southwest 437 503 17,500 -2,150 Descending Fort Worth Center
Wed 10:28:25 PM 33.6286 -96.1411 220° Southwest 420 483 15,600 -1,700 Descending Fort Worth Center
Wed 10:29:25 PM 33.5500 -96.2244 221° Southwest 393 452 14,100 -1,700 Descending Fort Worth Center
Wed 10:30:25 PM 33.4778 -96.3053 223° Southwest 372 428 12,200 -1,550 Descending Fort Worth Center
Wed 10:31:25 PM 33.4117 -96.3856 225° Southwest 350 403 11,000 -1,100 Descending Fort Worth Center
Wed 10:32:25 PM 33.3578 -96.4486 224° Southwest 321 369 10,000 -1,300 Descending Fort Worth Center
Wed 10:33:25 PM 33.3189 -96.5433 244° Southwest 297 342 8,400 -1,550 Descending Fort Worth Center
Wed 10:34:25 PM 33.2903 -96.6306 249° West 291 335 6,900 -1,400 Descending Fort Worth Center
Wed 10:35:25 PM 33.2614 -96.7028 244° Southwest 276 318 5,600 -950 Descending Fort Worth Center
Wed 10:36:25 PM 33.2097 -96.7753 230° Southwest 266 306 5,000 -300 Descending Fort Worth Center
Wed 10:37:25 PM 33.1681 -96.8353 230° Southwest 261 300 5,000 -50 Level Fort Worth Center
Wed 10:38:25 PM 33.1206 -96.9075 232° Southwest 253 291 4,900 -569 Descending Fort Worth Center
Wed 10:39:21 PM 33.0833 -96.9500 224° Southwest 211 243 3,900 -1,071 Descending Dallas / Fort Worth TRACON

Login

Don't have an account? Register now (free) for customized features, flight alerts, and more!